Time;durP1;ratioP1;P1;durP2;ratioP2;P2;SDS_P1;SDS_P2;PMS_P1;PMS_P2;Temp;Humidity;BMP_temperature;BMP_pressure;BME280_temperature;BME280_humidity;BME280_pressure;Samples;Min_cycle;Max_cycle;Signal;HPM_P1;HPM_P2
2022/06/27 00:00:31;;;;;;;3.40;2.35;;;18.80;99.90;;;19.22;93.78;100856.41;5240550;28;20058;-84
2022/06/27 00:03:04;;;;;;;4.88;2.60;;;18.90;99.90;;;19.23;94.11;100852.91;5243602;28;20080;-84
2022/06/27 00:05:36;;;;;;;3.15;2.33;;;18.90;99.90;;;19.23;94.12;100854.63;5245983;28;20040;-84
2022/06/27 00:08:09;;;;;;;2.75;2.20;;;18.90;99.90;;;19.22;94.31;100856.41;5256657;28;20041;-85
2022/06/27 00:10:42;;;;;;;3.20;2.42;;;18.80;99.90;;;19.22;94.76;100856.41;5239603;28;20055;-84
2022/06/27 00:13:14;;;;;;;4.60;2.83;;;18.80;99.90;;;19.22;95.26;100851.13;5238383;28;20481;-84
2022/06/27 00:15:46;;;;;;;3.85;2.72;;;18.90;99.90;;;19.23;95.23;100844.97;5237226;28;20048;-84
2022/06/27 00:18:19;;;;;;;4.10;2.72;;;18.80;99.90;;;19.22;95.77;100832.63;5232818;28;20102;-83
2022/06/27 00:20:53;;;;;;;3.10;2.35;;;18.80;99.90;;;19.23;96.32;100839.69;5259666;28;20399;-83
2022/06/27 00:23:26;;;;;;;3.15;2.33;;;18.90;99.90;;;19.23;96.94;100844.06;5249022;28;20059;-83
2022/06/27 00:25:58;;;;;;;3.75;2.42;;;18.90;99.90;;;19.21;96.86;100838.78;5243724;28;20139;-84
2022/06/27 00:28:30;;;;;;;3.83;2.60;;;18.90;99.90;;;19.16;96.57;100853.75;5255054;28;20128;-83
2022/06/27 00:31:04;;;;;;;3.92;2.90;;;18.80;99.90;;;19.14;96.84;100842.31;5237672;28;20458;-84
2022/06/27 00:33:38;;;;;;;4.20;2.88;;;18.80;99.90;;;19.13;97.39;100839.69;5237345;28;20041;-83
2022/06/27 00:36:10;;;;;;;4.50;2.80;;;18.80;99.90;;;19.13;97.86;100845.84;5255517;28;20135;-83
2022/06/27 00:38:42;;;;;;;4.28;2.50;;;18.80;99.90;;;19.13;98.17;100837.91;5254396;28;20094;-83
2022/06/27 00:41:15;;;;;;;4.35;2.67;;;18.70;99.90;;;19.12;98.44;100833.50;5237320;28;20045;-83
2022/06/27 00:43:47;;;;;;;3.20;2.58;;;18.70;99.90;;;19.13;98.95;100843.19;5236978;28;20098;-83
2022/06/27 00:46:20;;;;;;;3.22;2.15;;;18.80;99.90;;;19.11;98.66;100831.75;5236277;28;20041;-84
2022/06/27 00:48:53;;;;;;;4.07;2.50;;;18.80;99.90;;;19.11;98.65;100842.31;5236802;28;20058;-85
2022/06/27 00:51:25;;;;;;;3.08;2.42;;;18.70;99.90;;;19.09;98.72;100838.78;5254833;28;20051;-82
2022/06/27 00:53:58;;;;;;;4.57;2.63;;;18.70;99.90;;;19.08;98.99;100842.31;5237095;28;20104;-84
2022/06/27 00:56:30;;;;;;;3.17;2.67;;;18.70;99.90;;;19.07;99.08;100839.66;5255190;28;20096;-83
2022/06/27 00:59:02;;;;;;;3.78;2.47;;;18.70;99.90;;;19.06;98.96;100844.06;5236366;28;20049;-84
2022/06/27 01:01:34;;;;;;;3.70;2.70;;;18.70;99.90;;;19.07;99.34;100840.56;5262387;28;20052;-83
2022/06/27 01:04:08;;;;;;;4.30;2.90;;;18.70;99.90;;;19.05;99.74;100842.31;5237308;28;20414;-83
2022/06/27 01:06:40;;;;;;;3.90;2.60;;;18.70;99.90;;;19.04;100.00;100837.91;5236400;28;20052;-86
2022/06/27 01:09:12;;;;;;;3.13;2.50;;;18.70;99.90;;;19.04;100.00;100840.56;5254355;28;20048;-83
2022/06/27 01:11:45;;;;;;;4.55;2.72;;;18.70;99.90;;;19.03;100.00;100833.50;5235902;28;20048;-83
2022/06/27 01:14:17;;;;;;;4.55;2.65;;;18.70;99.90;;;19.02;100.00;100829.09;5260852;28;20040;-84
2022/06/27 01:16:49;;;;;;;3.85;2.78;;;18.70;99.90;;;19.03;100.00;100830.84;5229474;28;20041;-82
2022/06/27 01:19:23;;;;;;;6.40;2.90;;;18.70;99.90;;;19.02;100.00;100826.44;5236272;28;20037;-83
2022/06/27 01:21:57;;;;;;;4.47;2.60;;;18.70;99.90;;;19.02;100.00;100815.88;5239654;28;20037;-83
2022/06/27 01:24:31;;;;;;;3.13;2.50;;;18.70;99.90;;;19.01;99.94;100819.41;5234343;28;20047;-84
2022/06/27 01:27:05;;;;;;;4.20;2.83;;;18.60;99.90;;;18.99;99.75;100807.97;5231443;28;20055;-83
2022/06/27 01:29:37;;;;;;;3.88;2.83;;;18.60;99.90;;;18.96;99.66;100815.88;5219110;28;20110;-82
2022/06/27 01:32:11;;;;;;;3.72;2.65;;;18.60;99.90;;;18.94;100.00;100822.94;5222530;28;20049;-83
2022/06/27 01:34:43;;;;;;;3.80;2.58;;;18.60;99.90;;;18.94;100.00;100822.94;5230513;28;20087;-84
2022/06/27 01:37:15;;;;;;;5.07;3.13;;;18.60;99.90;;;18.94;100.00;100807.97;5233575;28;20072;-80
2022/06/27 01:39:50;;;;;;;3.65;2.70;;;18.60;99.90;;;18.93;100.00;100810.59;5223381;28;20048;-83
2022/06/27 01:42:22;;;;;;;4.00;3.20;;;18.60;99.90;;;18.90;100.00;100819.38;5228915;28;20044;-84
2022/06/27 01:44:55;;;;;;;3.83;2.45;;;18.60;99.90;;;18.91;100.00;100818.53;5229742;28;20065;-83
2022/06/27 01:47:27;;;;;;;3.58;2.78;;;18.50;99.90;;;18.91;100.00;100822.94;5232636;28;20522;-83
2022/06/27 01:50:10;;;;;;;4.57;3.00;;;18.60;99.90;;;18.92;100.00;100814.13;5236055;28;20136;-83
2022/06/27 01:52:50;;;;;;;4.15;2.80;;;18.60;99.90;;;18.93;100.00;100813.25;5251902;28;20041;-82
2022/06/27 01:55:24;;;;;;;3.40;2.53;;;18.60;99.90;;;18.93;100.00;100811.47;5234601;28;20067;-82
2022/06/27 01:57:58;;;;;;;2.80;2.50;;;18.60;99.90;;;18.93;100.00;100806.19;5235187;28;20458;-82
2022/06/27 02:00:31;;;;;;;4.32;2.92;;;18.60;99.90;;;18.91;100.00;100791.25;5235297;28;20041;-82
2022/06/27 02:03:05;;;;;;;3.25;2.30;;;18.60;99.90;;;18.90;100.00;100790.34;5253732;28;20094;-83
2022/06/27 02:05:45;;;;;;;3.72;2.70;;;18.50;99.90;;;18.88;100.00;100781.53;5235575;28;20049;-85
2022/06/27 02:08:20;;;;;;;4.57;3.15;;;18.50;99.90;;;18.89;100.00;100769.22;5237125;28;20053;-83
2022/06/27 02:10:53;;;;;;;3.75;2.65;;;18.50;99.90;;;18.86;100.00;100767.47;5235889;28;20088;-84
2022/06/27 02:13:28;;;;;;;3.38;2.60;;;18.50;99.90;;;18.89;100.00;100782.41;5237133;28;20071;-82
2022/06/27 02:16:06;;;;;;;4.65;2.90;;;18.50;99.90;;;18.90;100.00;100785.06;5236315;28;20056;-82
2022/06/27 02:18:43;;;;;;;3.53;2.70;;;18.50;99.90;;;18.93;100.00;100794.75;5236309;28;20093;-84
2022/06/27 02:21:20;;;;;;;3.00;2.63;;;18.50;99.90;;;18.93;100.00;100800.91;5235432;28;20053;-82
2022/06/27 02:23:53;;;;;;;4.55;3.13;;;18.50;99.90;;;18.90;100.00;100800.91;5236207;28;20052;-82
2022/06/27 02:26:30;;;;;;;3.90;3.20;;;18.50;99.90;;;18.89;100.00;100792.97;5233675;28;20091;-83
2022/06/27 02:29:02;;;;;;;3.38;2.63;;;18.50;99.90;;;18.87;100.00;100784.19;5251916;28;20730;-83
2022/06/27 02:31:45;;;;;;;3.70;2.65;;;18.50;99.90;;;18.85;100.00;100783.31;5252560;28;20060;-83
2022/06/27 02:34:19;;;;;;;4.47;2.80;;;18.50;99.90;;;18.85;100.00;100781.56;5233557;28;20070;-83
2022/06/27 02:36:51;;;;;;;3.58;2.50;;;18.50;99.90;;;18.85;100.00;100767.47;5237339;28;20040;-84
2022/06/27 02:39:26;;;;;;;4.20;3.10;;;18.50;99.90;;;18.86;100.00;100777.16;5254144;28;20052;-83
2022/06/27 02:42:04;;;;;;;3.83;2.75;;;18.50;99.90;;;18.86;100.00;100777.16;5254260;28;20536;-83
2022/06/27 02:44:39;;;;;;;3.75;3.03;;;18.50;99.90;;;18.85;100.00;100778.03;5254712;28;20044;-82
2022/06/27 02:47:11;;;;;;;;;;;18.50;99.90;;;18.86;100.00;100770.09;5257700;28;20472;-84
2022/06/27 02:49:43;;;;;;;3.95;2.83;;;18.50;99.90;;;18.86;100.00;100759.53;5275565;28;19951;-83
2022/06/27 02:52:21;;;;;;;3.40;2.55;;;18.50;99.90;;;18.89;100.00;100775.38;5255992;28;20079;-83
2022/06/27 02:55:09;;;;;;;3.40;2.63;;;18.50;99.90;;;18.91;100.00;100770.13;5255893;28;20051;-84
2022/06/27 02:57:52;;;;;;;6.47;3.40;;;18.50;99.90;;;18.85;100.00;100764.81;5257012;28;20044;-82
2022/06/27 03:00:28;;;;;;;4.35;3.17;;;18.50;99.90;;;18.90;100.00;100770.97;5273983;28;20065;-83
2022/06/27 03:03:01;;;;;;;6.80;3.25;;;18.50;99.90;;;18.89;100.00;100764.81;5255519;28;20418;-83
2022/06/27 03:05:56;;;;;;;3.15;2.63;;;18.60;99.90;;;18.89;100.00;100758.66;5273044;28;20040;-83
2022/06/27 03:08:38;;;;;;;5.70;2.90;;;18.50;99.90;;;18.87;100.00;100773.63;5256340;28;20446;-82
2022/06/27 03:11:13;;;;;;;4.55;2.80;;;18.50;99.90;;;18.86;100.00;100777.16;5256784;28;20044;-83
2022/06/27 03:13:48;;;;;;;4.13;2.70;;;18.50;99.90;;;18.86;100.00;100782.44;5256378;28;20056;-83
2022/06/27 03:16:22;;;;;;;3.47;2.28;;;18.50;99.90;;;18.87;100.00;100781.53;5257093;28;20514;-82
2022/06/27 03:18:57;;;;;;;2.63;2.20;;;18.50;99.90;;;18.87;100.00;100773.63;5256438;28;20055;-84
2022/06/27 03:21:48;;;;;;;3.45;2.38;;;18.50;99.90;;;18.90;100.00;100776.25;5276242;28;20076;-83
2022/06/27 03:24:21;;;;;;;4.30;2.38;;;18.50;99.90;;;18.90;100.00;100771.84;5257562;28;20510;-83
2022/06/27 03:26:53;;;;;;;4.55;2.90;;;18.60;99.90;;;18.91;100.00;100778.03;5257824;28;20040;-84
2022/06/27 03:29:27;;;;;;;3.75;2.88;;;18.60;99.90;;;18.93;100.00;100786.84;5275349;28;20409;-83
2022/06/27 03:32:01;;;;;;;5.60;3.70;;;18.60;99.90;;;18.91;100.00;100776.28;5257304;28;20123;-83
2022/06/27 03:34:34;;;;;;;5.35;3.83;;;18.60;99.90;;;18.89;100.00;100777.13;5258288;28;20103;-83
2022/06/27 03:37:21;;;;;;;4.40;3.17;;;18.60;99.90;;;18.90;100.00;100800.03;5256872;28;20587;-84
2022/06/27 03:39:54;;;;;;;5.88;3.63;;;18.60;99.90;;;18.87;100.00;100797.38;5257496;28;20505;-84
2022/06/27 03:42:26;;;;;;;4.82;3.38;;;18.50;99.90;;;18.86;100.00;100800.91;5256932;28;20098;-83
2022/06/27 03:45:00;;;;;;;4.25;2.90;;;18.50;99.90;;;18.89;100.00;100814.13;5256272;28;20044;-84
2022/06/27 03:47:33;;;;;;;3.30;2.70;;;18.50;99.90;;;18.93;100.00;100815.88;5257672;28;20480;-83
2022/06/27 03:50:28;;;;;;;3.97;3.00;;;18.60;99.90;;;18.95;100.00;100807.06;5275444;28;20052;-84
2022/06/27 03:53:00;;;;;;;3.95;2.60;;;18.60;99.90;;;18.96;100.00;100800.03;5258058;28;20048;-83
2022/06/27 03:55:36;;;;;;;3.53;2.40;;;18.60;99.90;;;18.97;100.00;100801.78;5256744;28;20521;-84
2022/06/27 03:58:08;;;;;;;5.70;3.25;;;18.60;99.90;;;18.97;100.00;100801.78;5257205;28;20075;-83
2022/06/27 04:00:45;;;;;;;5.22;3.35;;;18.60;99.90;;;18.95;100.00;100804.44;5257674;28;20048;-84
2022/06/27 04:03:18;;;;;;;;;;;18.60;99.90;;;18.95;100.00;100808.84;5258726;28;20113;-83
2022/06/27 04:05:57;;;;;;;8.20;5.03;;;18.60;99.90;;;18.93;100.00;100794.75;5261786;28;19920;-82
2022/06/27 04:08:30;;;;;;;5.78;3.53;;;18.60;99.90;;;18.90;100.00;100800.03;5267594;28;20047;-83
2022/06/27 04:11:02;;;;;;;5.68;3.60;;;18.60;99.90;;;18.89;100.00;100814.13;5257858;28;20048;-83
2022/06/27 04:13:39;;;;;;;4.47;3.30;;;18.50;99.90;;;18.89;100.00;100814.13;5257582;28;20127;-84
2022/06/27 04:16:32;;;;;;;5.28;3.33;;;18.50;99.90;;;18.90;100.00;100803.53;5275737;28;20165;-82
2022/06/27 04:19:36;;;;;;;4.95;3.30;;;18.60;99.90;;;18.92;100.00;100799.16;5220568;28;20417;-83
2022/06/27 04:22:28;;;;;;;4.03;2.90;;;18.60;99.90;;;18.94;100.00;100807.06;5258252;28;20510;-82
2022/06/27 04:25:04;;;;;;;5.97;2.97;;;18.60;99.90;;;18.95;100.00;100809.72;5277521;28;20056;-83
2022/06/27 04:27:57;;;;;;;;;;;18.60;99.90;;;18.96;100.00;100802.66;5276545;28;20093;-84
2022/06/27 04:30:29;;;;;;;4.15;3.00;;;18.60;99.90;;;18.96;100.00;100790.34;5260199;28;20293;-83
2022/06/27 04:33:03;;;;;;;4.50;3.20;;;18.60;99.90;;;18.93;100.00;100798.28;5259593;28;20059;-84
2022/06/27 04:35:36;;;;;;;5.20;3.30;;;18.60;99.90;;;18.93;100.00;100811.47;5258025;28;20044;-82
2022/06/27 04:40:53;;;;;;;4.57;2.70;;;18.60;99.90;;;18.95;100.00;100778.03;5211353;28;20087;-65
2022/06/27 04:43:27;;;;;;;4.85;3.40;;;18.60;99.90;;;18.94;100.00;100755.13;5210819;28;20049;-65
2022/06/27 04:45:59;;;;;;;4.78;3.28;;;18.60;99.90;;;18.94;100.00;100733.13;5210633;28;20053;-65
2022/06/27 04:49:09;;;;;;;5.97;3.60;;;18.60;99.90;;;18.92;100.00;100763.94;5164944;28;20481;-65
2022/06/27 04:51:43;;;;;;;4.65;3.40;;;18.60;99.90;;;18.92;100.00;100761.31;5218661;28;20053;-66
2022/06/27 04:54:16;;;;;;;5.53;3.40;;;18.60;99.90;;;18.94;100.00;100770.09;5210798;28;20130;-65
2022/06/27 04:56:48;;;;;;;5.65;3.78;;;18.60;99.90;;;18.95;100.00;100772.72;5210445;28;20045;-66
2022/06/27 04:59:22;;;;;;;4.63;3.15;;;18.60;99.90;;;18.96;100.00;100757.75;5203711;28;20513;-64
2022/06/27 05:02:02;;;;;;;;;;;18.60;99.90;;;18.97;100.00;100756.88;5210831;28;20056;-65
2022/06/27 05:04:36;;;;;;;4.35;3.10;;;18.60;99.90;;;19.00;100.00;100753.38;5210509;28;19928;-66
2022/06/27 05:07:08;;;;;;;5.22;3.17;;;18.60;99.90;;;19.02;100.00;100744.56;5210484;28;20099;-66
2022/06/27 05:09:41;;;;;;;4.47;3.20;;;18.70;99.90;;;19.04;100.00;100744.56;5228297;28;20124;-65
2022/06/27 05:12:13;;;;;;;5.95;3.42;;;18.70;99.90;;;19.08;100.00;100744.56;5210306;28;20045;-64
2022/06/27 05:14:45;;;;;;;5.30;3.00;;;18.70;99.90;;;19.11;100.00;100741.94;5210030;28;20559;-67
2022/06/27 05:17:17;;;;;;;5.15;3.00;;;18.70;99.90;;;19.16;100.00;100750.72;5242761;28;20526;-66
2022/06/27 05:19:52;;;;;;;4.53;3.22;;;18.80;99.90;;;19.23;100.00;100751.56;5209965;28;20056;-65
2022/06/27 05:22:24;;;;;;;4.57;3.17;;;18.80;99.90;;;19.28;100.00;100733.09;5210162;28;20077;-67
2022/06/27 05:24:57;;;;;;;4.85;3.20;;;18.80;99.90;;;19.33;100.00;100729.56;5210252;28;20115;-66
2022/06/27 05:27:29;;;;;;;4.32;3.20;;;18.90;99.90;;;19.42;100.00;100726.00;5210086;28;20059;-65
2022/06/27 05:30:03;;;;;;;3.88;2.90;;;19.00;99.90;;;19.53;100.00;100732.16;5243684;28;20049;-65
2022/06/27 05:32:36;;;;;;;4.60;2.97;;;19.00;99.90;;;19.68;100.00;100739.19;5210084;28;20096;-65
2022/06/27 05:35:11;;;;;;;5.03;3.42;;;19.20;99.90;;;19.75;99.34;100752.38;5209680;28;20052;-65
2022/06/27 05:37:44;;;;;;;7.38;4.82;;;19.30;99.90;;;19.78;97.58;100762.97;5209895;28;20069;-66
2022/06/27 05:40:19;;;;;;;4.63;3.00;;;19.30;99.90;;;19.76;96.52;100759.44;5209679;28;20460;-67
2022/06/27 05:42:53;;;;;;;6.03;3.35;;;19.30;99.90;;;19.75;95.79;100770.88;5185441;28;20062;-65
2022/06/27 05:45:26;;;;;;;5.85;3.60;;;19.30;99.90;;;19.73;95.22;100762.09;5201493;28;20068;-66
2022/06/27 05:48:17;;;;;;;7.05;4.28;;;19.30;99.90;;;19.66;94.28;100740.97;5186779;28;20121;-66
2022/06/27 05:51:06;;;;;;;6.55;4.30;;;19.30;99.90;;;19.52;93.64;100744.50;5201689;28;20061;-65
2022/06/27 05:53:41;;;;;;;5.57;3.33;;;19.20;99.90;;;19.51;94.21;100748.03;5168940;28;20049;-66
2022/06/27 05:56:15;;;;;;;6.68;4.38;;;19.20;99.90;;;19.49;94.49;100762.97;5168570;28;20514;-65
2022/06/27 05:58:48;;;;;;;6.03;3.72;;;19.20;99.90;;;19.52;95.06;100770.94;5168681;28;20107;-66
2022/06/27 06:01:21;;;;;;;5.90;3.70;;;19.20;99.90;;;19.56;95.39;100757.69;5168582;28;20050;-66
2022/06/27 06:03:56;;;;;;;6.88;4.43;;;19.20;99.90;;;19.54;95.81;100762.97;5201425;28;20077;-66
2022/06/27 06:06:29;;;;;;;5.40;3.65;;;19.20;99.90;;;19.61;96.20;100785.91;5201099;28;20418;-65
2022/06/27 06:09:03;;;;;;;5.95;3.88;;;19.20;99.90;;;19.67;96.02;100799.13;5169137;28;20049;-65
2022/06/27 06:11:36;;;;;;;5.93;3.72;;;19.30;99.90;;;19.71;95.44;100813.22;5201214;28;20073;-66
2022/06/27 06:14:09;;;;;;;6.55;3.60;;;19.30;99.90;;;19.71;94.83;100818.53;5168452;28;20054;-67
2022/06/27 06:16:41;;;;;;;5.68;3.22;;;19.30;99.90;;;19.73;94.97;100827.31;5201156;28;20084;-68
2022/06/27 06:19:17;;;;;;;5.03;3.53;;;19.30;99.90;;;19.75;94.64;100836.13;5201205;28;20084;-68
2022/06/27 06:21:51;;;;;;;7.05;3.80;;;19.30;99.90;;;19.74;94.24;100845.81;5185900;28;20132;-68
2022/06/27 06:24:24;;;;;;;6.32;4.05;;;19.40;99.90;;;19.72;93.65;100844.94;5185882;28;20053;-68
2022/06/27 06:26:56;;;;;;;6.07;3.53;;;19.30;99.90;;;19.73;93.30;100849.34;5168353;28;20116;-68
2022/06/27 06:29:29;;;;;;;7.30;3.53;;;19.30;99.90;;;19.72;93.03;100850.25;5200752;28;20103;-64
2022/06/27 06:32:09;;;;;;;5.25;3.42;;;19.30;99.90;;;19.71;93.38;100845.84;5200959;28;20058;-67
2022/06/27 06:34:41;;;;;;;7.40;3.40;;;19.30;99.90;;;19.73;93.71;100844.06;5200832;28;20045;-66
2022/06/27 06:37:16;;;;;;;6.63;3.60;;;19.40;99.90;;;19.77;94.13;100856.41;5168067;28;20164;-68
2022/06/27 06:39:48;;;;;;;5.70;3.30;;;19.40;99.90;;;19.83;94.57;100867.88;5185675;28;20072;-68
2022/06/27 06:42:21;;;;;;;5.25;3.30;;;19.40;99.90;;;19.88;95.05;100858.13;5168003;28;20092;-67
2022/06/27 06:45:07;;;;;;;5.25;3.13;;;19.50;99.90;;;19.93;94.87;100845.78;5200594;28;20053;-68
2022/06/27 06:48:08;;;;;;;5.47;3.28;;;19.50;99.90;;;20.06;94.88;100860.75;5184311;28;20057;-66
2022/06/27 06:50:41;;;;;;;4.97;3.20;;;19.60;99.90;;;20.15;95.13;100868.66;5167825;28;20092;-67
2022/06/27 06:53:14;;;;;;;5.50;3.55;;;19.70;99.90;;;20.22;94.96;100878.34;5167853;28;20148;-66
2022/06/27 06:55:47;;;;;;;5.72;3.38;;;19.80;99.90;;;20.28;94.72;100888.03;5185381;28;20037;-67
2022/06/27 06:58:20;;;;;;;7.35;4.47;;;19.80;99.90;;;20.28;94.34;100902.16;5185461;28;20064;-67
2022/06/27 07:00:53;;;;;;;5.68;3.30;;;19.80;99.90;;;20.22;93.87;100891.59;5185311;28;20048;-68
2022/06/27 07:03:25;;;;;;;4.35;3.10;;;19.80;99.90;;;20.16;93.62;100875.72;5185470;28;20462;-68
2022/06/27 07:05:58;;;;;;;4.28;3.08;;;19.70;99.90;;;20.14;93.74;100877.47;5185294;28;20048;-68
2022/06/27 07:08:33;;;;;;;4.80;2.97;;;19.70;99.90;;;20.13;93.44;100859.84;5200487;28;20045;-67
2022/06/27 07:11:06;;;;;;;7.63;3.60;;;19.70;99.90;;;20.11;92.96;100851.03;5185646;28;20044;-68
2022/06/27 07:13:39;;;;;;;4.85;2.97;;;19.70;99.90;;;20.12;92.19;100847.50;5167658;28;20053;-67
2022/06/27 07:16:11;;;;;;;5.80;3.35;;;19.70;99.90;;;20.16;91.67;100862.50;5185179;28;20113;-68
2022/06/27 07:18:44;;;;;;;5.28;3.35;;;19.70;99.90;;;20.20;91.58;100852.75;5185256;28;20046;-68
2022/06/27 07:21:18;;;;;;;5.75;3.22;;;19.70;99.90;;;20.19;91.12;100849.22;5175404;28;20160;-67
2022/06/27 07:23:52;;;;;;;5.32;3.47;;;19.70;99.90;;;20.24;90.42;100852.75;5185130;28;20057;-68
2022/06/27 07:26:27;;;;;;;6.38;3.42;;;19.70;99.90;;;20.37;89.54;100858.00;5183757;28;20064;-68
2022/06/27 07:29:00;;;;;;;5.28;3.65;;;19.90;99.90;;;20.48;88.70;100861.50;5156322;28;20053;-68
2022/06/27 07:31:32;;;;;;;6.75;3.38;;;20.00;99.90;;;20.61;87.77;100876.44;5185062;28;20097;-68
2022/06/27 07:34:08;;;;;;;5.70;4.00;;;20.20;99.90;;;20.71;86.46;100864.91;5185172;28;20052;-66
2022/06/27 07:36:40;;;;;;;5.45;3.78;;;20.30;99.90;;;20.81;85.54;100863.09;5185001;28;20046;-68
2022/06/27 07:39:14;;;;;;;5.65;3.45;;;20.40;99.90;;;20.91;85.01;100862.13;5185242;28;20069;-67
2022/06/27 07:41:49;;;;;;;6.20;3.97;;;20.50;99.90;;;20.93;84.65;100864.75;5187037;28;20049;-68
2022/06/27 07:44:21;;;;;;;6.05;4.00;;;20.60;99.90;;;20.94;84.51;100874.50;5189196;28;20490;-67
2022/06/27 07:46:56;;;;;;;5.68;4.10;;;20.60;99.90;;;20.96;84.24;100867.41;5188914;28;20514;-66
2022/06/27 07:49:28;;;;;;;6.32;3.92;;;20.60;99.90;;;20.95;83.99;100860.34;5187725;28;20052;-67
2022/06/27 07:52:00;;;;;;;5.68;3.88;;;20.60;99.90;;;20.98;82.90;100855.03;5193952;28;20081;-67
2022/06/27 07:54:34;;;;;;;7.25;4.07;;;20.60;99.90;;;21.01;82.90;100852.38;5209249;28;20069;-67
2022/06/27 07:57:06;;;;;;;4.95;3.42;;;20.60;99.90;;;21.10;83.40;100858.47;5209272;28;20128;-66
2022/06/27 07:59:39;;;;;;;5.78;3.60;;;20.70;99.90;;;21.27;83.33;100868.94;5208599;28;20548;-68
2022/06/27 08:02:11;;;;;;;7.00;3.53;;;20.90;99.90;;;21.42;82.35;100875.06;5193594;28;20053;-67
2022/06/27 08:04:44;;;;;;;4.43;3.15;;;21.00;99.90;;;21.54;81.61;100881.13;5228720;28;20040;-61
2022/06/27 08:07:16;;;;;;;6.22;3.13;;;21.10;99.90;;;21.65;81.25;100881.03;5229746;28;20053;-63
2022/06/27 08:09:50;;;;;;;4.68;3.20;;;21.20;99.90;;;21.72;80.80;100890.69;5213029;28;20432;-65
2022/06/27 08:12:22;;;;;;;6.20;4.18;;;21.30;99.90;;;21.73;80.03;100897.75;5207546;28;20136;-65
2022/06/27 08:14:54;;;;;;;6.95;4.07;;;21.30;99.90;;;21.69;79.90;100901.31;5202957;28;20048;-66
2022/06/27 08:17:26;;;;;;;8.57;5.80;;;21.30;99.90;;;21.62;79.93;100908.47;5219283;28;20408;-65
2022/06/27 08:19:59;;;;;;;7.80;4.40;;;21.20;99.90;;;21.55;79.92;100916.47;5222916;28;20041;-65
2022/06/27 08:22:32;;;;;;;8.63;5.15;;;21.10;99.90;;;21.47;80.30;100905.94;5219326;28;20049;-66
2022/06/27 08:25:07;;;;;;;9.23;5.82;;;21.10;99.90;;;21.42;80.59;100901.56;5227369;28;20091;-64
2022/06/27 08:27:41;;;;;;;11.23;6.75;;;21.00;99.90;;;21.34;80.69;100904.28;5228952;28;20056;-64
2022/06/27 08:30:14;;;;;;;10.50;6.07;;;20.90;99.90;;;21.26;81.10;100938.78;5225136;28;20041;-64
2022/06/27 08:32:46;;;;;;;11.15;6.47;;;20.90;99.90;;;21.20;81.34;100945.88;5244610;28;20053;-66
2022/06/27 08:35:19;;;;;;;10.63;6.45;;;20.80;99.90;;;21.16;81.76;100941.50;5228875;28;20142;-66
2022/06/27 08:37:52;;;;;;;12.65;7.65;;;20.80;99.90;;;21.14;82.18;100957.41;5228504;28;20049;-65
2022/06/27 08:40:28;;;;;;;9.75;6.13;;;20.80;99.90;;;21.11;82.17;100970.66;5215869;28;20041;-67
2022/06/27 08:43:01;;;;;;;10.93;6.30;;;20.70;99.90;;;21.09;82.30;100980.41;5222635;28;20041;-66
2022/06/27 08:45:34;;;;;;;10.90;6.72;;;20.70;99.90;;;21.05;82.67;100999.84;5225817;28;20040;-63
2022/06/27 08:48:08;;;;;;;8.15;5.30;;;20.70;99.90;;;21.01;82.67;101012.25;5228945;28;20704;-64
2022/06/27 08:50:41;;;;;;;8.90;5.40;;;20.60;99.90;;;20.98;83.12;101017.53;5229069;28;20102;-65
2022/06/27 08:53:17;;;;;;;7.10;4.97;;;20.60;99.90;;;20.99;83.33;101016.66;5221390;28;20471;-67
2022/06/27 08:55:50;;;;;;;7.60;4.38;;;20.60;99.90;;;20.95;83.54;101022.00;5207560;28;20045;-71
2022/06/27 08:58:25;;;;;;;8.23;5.55;;;20.60;99.90;;;20.85;83.60;101015.84;5196039;28;20045;-71
2022/06/27 09:00:58;;;;;;;6.20;4.18;;;20.50;99.90;;;20.78;84.39;101017.63;5198023;28;20101;-69
2022/06/27 09:03:32;;;;;;;8.27;4.60;;;20.50;99.90;;;20.75;84.90;101020.31;5219121;28;20140;-67
2022/06/27 09:06:06;;;;;;;9.10;5.43;;;20.40;99.90;;;20.73;85.09;101019.41;5207908;28;20464;-66
2022/06/27 09:09:03;;;;;;;7.30;5.25;;;20.40;99.90;;;20.66;85.04;101004.41;5207960;28;20033;-65
2022/06/27 09:11:39;;;;;;;9.07;5.60;;;20.30;99.90;;;20.61;85.21;100984.16;5207628;28;20053;-65
2022/06/27 09:14:35;;;;;;;8.13;5.20;;;20.20;99.90;;;20.61;85.35;100979.75;5207654;28;20505;-65
2022/06/27 09:17:12;;;;;;;7.03;4.85;;;20.20;99.90;;;20.65;85.43;100984.13;5197563;28;20375;-65
2022/06/27 09:19:49;;;;;;;8.98;5.55;;;20.30;99.90;;;20.68;85.63;100981.47;5180203;28;20092;-64
2022/06/27 09:22:26;;;;;;;9.02;5.18;;;20.30;99.90;;;20.70;85.35;100978.81;5180118;28;20041;-65
2022/06/27 09:25:05;;;;;;;8.25;5.40;;;20.30;99.90;;;20.73;85.37;100974.38;5212791;28;20045;-66
2022/06/27 09:27:45;;;;;;;6.68;3.97;;;20.30;99.90;;;20.81;85.56;100980.53;5226388;28;20051;-65
2022/06/27 09:30:26;;;;;;;6.38;4.03;;;20.40;99.90;;;20.94;85.66;100983.13;5227960;28;20129;-65
2022/06/27 09:33:01;;;;;;;7.60;4.35;;;20.50;99.90;;;21.05;85.68;100983.94;5228037;28;20041;-65
2022/06/27 09:35:36;;;;;;;8.98;5.22;;;20.50;99.90;;;21.14;85.34;100997.16;5227756;28;20041;-66
2022/06/27 09:38:09;;;;;;;8.00;4.47;;;20.60;99.90;;;21.14;84.77;100989.22;5173932;28;20050;-71
2022/06/27 09:40:41;;;;;;;8.18;5.15;;;20.70;99.90;;;21.20;84.74;100989.19;5169063;28;20506;-72
2022/06/27 09:43:19;;;;;;;7.65;4.38;;;20.70;99.90;;;21.27;84.42;100990.91;5186858;28;20050;-72
2022/06/27 09:45:52;;;;;;;6.32;4.22;;;20.80;99.90;;;21.38;84.09;100975.81;5186485;28;20041;-67
2022/06/27 09:48:26;;;;;;;9.20;4.80;;;20.80;99.90;;;21.57;82.97;100973.03;5169084;28;20042;-66
2022/06/27 09:50:58;;;;;;;11.20;6.55;;;21.00;99.90;;;21.78;82.51;100975.53;5186646;28;20041;-65
2022/06/27 09:53:31;;;;;;;8.13;5.05;;;21.10;99.90;;;21.95;82.01;100967.41;5186631;28;20073;-65
2022/06/27 09:56:08;;;;;;;8.95;5.00;;;21.30;99.90;;;22.06;80.58;100962.91;5186412;28;20509;-65
2022/06/27 09:58:43;;;;;;;8.93;5.00;;;21.40;99.90;;;22.22;80.04;100963.66;5186496;28;20053;-67
2022/06/27 10:01:16;;;;;;;;;;;21.50;99.90;;;22.30;79.49;100968.88;5186835;28;20057;-67
2022/06/27 10:03:48;;;;;;;7.55;4.70;;;21.60;99.90;;;22.30;78.33;100975.09;5201095;28;19921;-65
2022/06/27 10:06:22;;;;;;;8.38;4.90;;;21.60;99.90;;;22.29;77.69;100983.94;5168843;28;20138;-65
2022/06/27 10:08:54;;;;;;;7.47;4.78;;;21.70;99.90;;;22.25;76.94;100976.91;5186316;28;20056;-67
2022/06/27 10:11:27;;;;;;;10.15;5.03;;;21.70;99.90;;;22.21;77.54;100976.03;5186152;28;20050;-66
2022/06/27 10:14:16;;;;;;;7.07;4.63;;;21.60;99.90;;;22.23;77.58;100976.03;5168729;28;20065;-64
2022/06/27 10:16:57;;;;;;;10.98;7.45;;;21.70;99.90;;;22.24;76.70;100991.09;5207432;28;20041;-63
2022/06/27 10:19:30;;;;;;;11.70;7.32;;;21.70;99.90;;;22.19;76.82;100992.91;5206459;28;20076;-65
2022/06/27 10:22:03;;;;;;;10.13;6.57;;;21.70;99.90;;;22.21;77.42;100999.06;5206495;28;20037;-63
2022/06/27 10:24:36;;;;;;;8.82;5.35;;;21.70;99.90;;;22.28;77.85;101008.72;5206254;28;20057;-61
2022/06/27 10:27:29;;;;;;;10.07;6.70;;;21.70;99.90;;;22.38;77.59;101010.41;5188546;28;20103;-64
2022/06/27 10:30:39;;;;;;;10.85;7.25;;;21.80;99.90;;;22.45;76.72;101004.13;5206283;28;20111;-65
2022/06/27 10:33:41;;;;;;;21.75;11.63;;;21.90;99.90;;;22.51;76.57;101013.81;5188742;28;20149;-64
2022/06/27 10:36:15;;;;;;;53.22;27.83;;;21.90;99.90;;;22.58;76.47;101014.63;5206271;28;20493;-59
2022/06/27 10:38:57;;;;;;;35.25;19.52;;;22.00;99.90;;;22.58;75.93;101020.81;5206071;28;20506;-61
2022/06/27 10:41:42;;;;;;;29.67;15.45;;;22.00;99.90;;;22.55;75.88;101042.09;5264944;22;20302;-87
2022/06/27 10:44:38;;;;;;;17.20;9.68;;;22.00;99.90;;;22.43;75.63;101045.78;5243674;28;20048;-85
2022/06/27 10:47:33;;;;;;;14.68;7.97;;;21.90;99.90;;;22.36;75.51;101049.34;5224627;28;20058;-82